sensor_id;sensor_type;location;lat;lon;timestamp;temperature;humidity
11591;DHT22;5851;54.050;9.974;2023-07-09T00:01:43;19.50;70.20
11591;DHT22;5851;54.050;9.974;2023-07-09T00:04:12;19.60;70.60
11591;DHT22;5851;54.050;9.974;2023-07-09T00:06:39;19.40;70.40
11591;DHT22;5851;54.050;9.974;2023-07-09T00:09:12;19.50;69.70
11591;DHT22;5851;54.050;9.974;2023-07-09T00:11:40;19.60;70.00
11591;DHT22;5851;54.050;9.974;2023-07-09T00:14:08;19.40;70.30
11591;DHT22;5851;54.050;9.974;2023-07-09T00:16:35;19.20;70.80
11591;DHT22;5851;54.050;9.974;2023-07-09T00:19:02;19.40;70.30
11591;DHT22;5851;54.050;9.974;2023-07-09T00:21:31;19.50;69.70
11591;DHT22;5851;54.050;9.974;2023-07-09T00:24:00;19.50;69.40
11591;DHT22;5851;54.050;9.974;2023-07-09T00:26:30;19.60;68.70
11591;DHT22;5851;54.050;9.974;2023-07-09T00:28:57;19.70;68.20
11591;DHT22;5851;54.050;9.974;2023-07-09T00:31:25;19.70;68.00
11591;DHT22;5851;54.050;9.974;2023-07-09T00:33:52;19.60;68.00
11591;DHT22;5851;54.050;9.974;2023-07-09T00:36:26;19.70;68.00
11591;DHT22;5851;54.050;9.974;2023-07-09T00:38:55;19.50;69.10
11591;DHT22;5851;54.050;9.974;2023-07-09T00:41:25;19.30;70.20
11591;DHT22;5851;54.050;9.974;2023-07-09T00:43:53;19.20;70.60
11591;DHT22;5851;54.050;9.974;2023-07-09T00:49:31;19.20;70.90
11591;DHT22;5851;54.050;9.974;2023-07-09T00:52:01;19.10;70.70
11591;DHT22;5851;54.050;9.974;2023-07-09T00:54:34;19.00;70.80
11591;DHT22;5851;54.050;9.974;2023-07-09T00:57:05;19.00;70.30
11591;DHT22;5851;54.050;9.974;2023-07-09T00:59:34;19.20;69.60
11591;DHT22;5851;54.050;9.974;2023-07-09T01:02:01;19.40;69.40
11591;DHT22;5851;54.050;9.974;2023-07-09T01:04:28;19.20;69.60
11591;DHT22;5851;54.050;9.974;2023-07-09T01:06:57;19.10;69.30
11591;DHT22;5851;54.050;9.974;2023-07-09T01:09:24;19.20;69.90
11591;DHT22;5851;54.050;9.974;2023-07-09T01:11:53;19.30;68.70
11591;DHT22;5851;54.050;9.974;2023-07-09T01:14:23;19.30;68.90
11591;DHT22;5851;54.050;9.974;2023-07-09T01:16:55;19.30;68.70
11591;DHT22;5851;54.050;9.974;2023-07-09T01:19:25;19.20;69.20
11591;DHT22;5851;54.050;9.974;2023-07-09T01:21:56;19.10;69.40
11591;DHT22;5851;54.050;9.974;2023-07-09T01:24:51;19.20;68.70
11591;DHT22;5851;54.050;9.974;2023-07-09T01:27:20;19.20;69.10
11591;DHT22;5851;54.050;9.974;2023-07-09T01:29:47;19.10;69.80
11591;DHT22;5851;54.050;9.974;2023-07-09T01:32:16;19.10;69.80
11591;DHT22;5851;54.050;9.974;2023-07-09T01:34:45;19.00;70.10
11591;DHT22;5851;54.050;9.974;2023-07-09T01:37:15;18.80;70.30
11591;DHT22;5851;54.050;9.974;2023-07-09T01:39:42;18.80;70.10
11591;DHT22;5851;54.050;9.974;2023-07-09T01:42:09;18.90;69.50
11591;DHT22;5851;54.050;9.974;2023-07-09T01:44:37;19.00;69.20
11591;DHT22;5851;54.050;9.974;2023-07-09T01:47:05;19.10;68.60
11591;DHT22;5851;54.050;9.974;2023-07-09T01:49:32;19.10;68.50
11591;DHT22;5851;54.050;9.974;2023-07-09T01:51:59;19.00;69.10
11591;DHT22;5851;54.050;9.974;2023-07-09T01:54:29;19.00;69.30
11591;DHT22;5851;54.050;9.974;2023-07-09T01:56:59;18.90;69.40
11591;DHT22;5851;54.050;9.974;2023-07-09T01:59:27;18.70;69.40
11591;DHT22;5851;54.050;9.974;2023-07-09T02:01:54;18.80;69.20
11591;DHT22;5851;54.050;9.974;2023-07-09T02:04:23;18.80;69.10
11591;DHT22;5851;54.050;9.974;2023-07-09T02:06:53;18.80;68.90
11591;DHT22;5851;54.050;9.974;2023-07-09T02:09:20;18.80;68.70
11591;DHT22;5851;54.050;9.974;2023-07-09T02:11:48;18.80;68.80
11591;DHT22;5851;54.050;9.974;2023-07-09T02:14:15;18.60;69.10
11591;DHT22;5851;54.050;9.974;2023-07-09T02:16:42;18.60;69.20
11591;DHT22;5851;54.050;9.974;2023-07-09T02:19:10;18.70;69.20
11591;DHT22;5851;54.050;9.974;2023-07-09T02:21:37;18.70;69.00
11591;DHT22;5851;54.050;9.974;2023-07-09T02:24:04;18.60;69.00
11591;DHT22;5851;54.050;9.974;2023-07-09T02:26:31;18.50;68.90
11591;DHT22;5851;54.050;9.974;2023-07-09T02:28:59;18.50;69.30
11591;DHT22;5851;54.050;9.974;2023-07-09T02:31:26;18.60;69.00
11591;DHT22;5851;54.050;9.974;2023-07-09T02:33:55;18.70;68.70
11591;DHT22;5851;54.050;9.974;2023-07-09T02:36:23;18.70;68.20
11591;DHT22;5851;54.050;9.974;2023-07-09T02:38:50;18.70;68.00
11591;DHT22;5851;54.050;9.974;2023-07-09T02:41:17;18.50;68.40
11591;DHT22;5851;54.050;9.974;2023-07-09T02:43:44;18.50;68.30
11591;DHT22;5851;54.050;9.974;2023-07-09T02:46:12;18.60;68.50
11591;DHT22;5851;54.050;9.974;2023-07-09T02:48:39;18.60;68.60
11591;DHT22;5851;54.050;9.974;2023-07-09T02:51:06;18.60;68.00
11591;DHT22;5851;54.050;9.974;2023-07-09T02:53:33;18.60;67.90
11591;DHT22;5851;54.050;9.974;2023-07-09T02:56:00;18.70;67.90
11591;DHT22;5851;54.050;9.974;2023-07-09T02:58:27;18.70;67.40
11591;DHT22;5851;54.050;9.974;2023-07-09T03:00:54;18.70;67.80
11591;DHT22;5851;54.050;9.974;2023-07-09T03:03:22;18.60;67.60
11591;DHT22;5851;54.050;9.974;2023-07-09T03:05:49;18.60;67.80
11591;DHT22;5851;54.050;9.974;2023-07-09T03:08:16;18.50;67.80
11591;DHT22;5851;54.050;9.974;2023-07-09T03:10:43;18.50;67.90
11591;DHT22;5851;54.050;9.974;2023-07-09T03:13:09;18.50;68.00
11591;DHT22;5851;54.050;9.974;2023-07-09T03:15:36;18.30;68.00
11591;DHT22;5851;54.050;9.974;2023-07-09T03:18:03;18.30;68.00
11591;DHT22;5851;54.050;9.974;2023-07-09T03:20:32;18.10;68.50
11591;DHT22;5851;54.050;9.974;2023-07-09T03:22:59;18.00;68.50
11591;DHT22;5851;54.050;9.974;2023-07-09T03:25:26;18.00;68.70
11591;DHT22;5851;54.050;9.974;2023-07-09T03:27:52;17.90;68.70
11591;DHT22;5851;54.050;9.974;2023-07-09T03:30:19;18.00;68.40
11591;DHT22;5851;54.050;9.974;2023-07-09T03:32:46;18.20;68.20
11591;DHT22;5851;54.050;9.974;2023-07-09T03:35:14;18.30;67.80
11591;DHT22;5851;54.050;9.974;2023-07-09T03:37:42;18.10;67.50
11591;DHT22;5851;54.050;9.974;2023-07-09T03:40:10;18.20;67.40
11591;DHT22;5851;54.050;9.974;2023-07-09T03:42:37;18.30;67.50
11591;DHT22;5851;54.050;9.974;2023-07-09T03:45:05;18.30;67.90
11591;DHT22;5851;54.050;9.974;2023-07-09T03:47:32;18.40;67.30
11591;DHT22;5851;54.050;9.974;2023-07-09T03:49:59;18.50;67.00
11591;DHT22;5851;54.050;9.974;2023-07-09T03:52:25;18.30;66.60
11591;DHT22;5851;54.050;9.974;2023-07-09T03:54:54;18.20;66.60
11591;DHT22;5851;54.050;9.974;2023-07-09T03:57:22;18.30;66.70
11591;DHT22;5851;54.050;9.974;2023-07-09T03:59:48;18.20;66.90
11591;DHT22;5851;54.050;9.974;2023-07-09T04:02:15;18.20;66.80
11591;DHT22;5851;54.050;9.974;2023-07-09T04:04:42;18.10;66.80
11591;DHT22;5851;54.050;9.974;2023-07-09T04:07:09;18.00;66.80
11591;DHT22;5851;54.050;9.974;2023-07-09T04:09:36;18.00;67.10
11591;DHT22;5851;54.050;9.974;2023-07-09T04:12:06;18.10;67.50
11591;DHT22;5851;54.050;9.974;2023-07-09T04:14:33;18.10;66.80
11591;DHT22;5851;54.050;9.974;2023-07-09T04:16:59;18.20;67.80
11591;DHT22;5851;54.050;9.974;2023-07-09T04:19:26;18.30;67.00
11591;DHT22;5851;54.050;9.974;2023-07-09T04:21:54;18.40;67.00
11591;DHT22;5851;54.050;9.974;2023-07-09T04:24:21;18.50;66.70
11591;DHT22;5851;54.050;9.974;2023-07-09T04:26:48;18.50;67.30
11591;DHT22;5851;54.050;9.974;2023-07-09T04:29:17;18.40;66.20
11591;DHT22;5851;54.050;9.974;2023-07-09T04:31:43;18.30;66.40
11591;DHT22;5851;54.050;9.974;2023-07-09T04:34:10;18.30;66.50
11591;DHT22;5851;54.050;9.974;2023-07-09T04:36:37;18.40;66.50
11591;DHT22;5851;54.050;9.974;2023-07-09T04:39:04;18.40;66.40
11591;DHT22;5851;54.050;9.974;2023-07-09T04:41:33;18.30;66.10
11591;DHT22;5851;54.050;9.974;2023-07-09T04:43:59;18.40;66.60
11591;DHT22;5851;54.050;9.974;2023-07-09T04:46:28;18.50;66.60
11591;DHT22;5851;54.050;9.974;2023-07-09T04:48:55;18.50;66.00
11591;DHT22;5851;54.050;9.974;2023-07-09T04:51:22;18.40;66.20
11591;DHT22;5851;54.050;9.974;2023-07-09T04:53:49;18.50;66.40
11591;DHT22;5851;54.050;9.974;2023-07-09T04:56:17;18.50;66.60
11591;DHT22;5851;54.050;9.974;2023-07-09T04:58:45;18.40;66.20
11591;DHT22;5851;54.050;9.974;2023-07-09T05:01:11;18.40;66.60
11591;DHT22;5851;54.050;9.974;2023-07-09T05:03:40;18.30;67.10
11591;DHT22;5851;54.050;9.974;2023-07-09T05:06:06;18.40;67.40
11591;DHT22;5851;54.050;9.974;2023-07-09T05:08:33;18.30;67.70
11591;DHT22;5851;54.050;9.974;2023-07-09T05:11:00;18.30;67.40
11591;DHT22;5851;54.050;9.974;2023-07-09T05:13:27;18.20;67.90
11591;DHT22;5851;54.050;9.974;2023-07-09T05:15:55;18.20;68.30
11591;DHT22;5851;54.050;9.974;2023-07-09T05:18:22;18.10;68.40
11591;DHT22;5851;54.050;9.974;2023-07-09T05:20:51;18.20;68.60
11591;DHT22;5851;54.050;9.974;2023-07-09T05:23:17;18.20;68.60
11591;DHT22;5851;54.050;9.974;2023-07-09T05:25:44;18.20;68.00
11591;DHT22;5851;54.050;9.974;2023-07-09T05:28:11;18.30;68.30
11591;DHT22;5851;54.050;9.974;2023-07-09T05:30:41;18.30;67.90
11591;DHT22;5851;54.050;9.974;2023-07-09T05:33:08;18.40;67.80
11591;DHT22;5851;54.050;9.974;2023-07-09T05:35:35;18.60;69.50
11591;DHT22;5851;54.050;9.974;2023-07-09T05:38:03;18.60;67.80
11591;DHT22;5851;54.050;9.974;2023-07-09T05:40:30;18.90;68.20
11591;DHT22;5851;54.050;9.974;2023-07-09T05:42:57;19.10;67.80
11591;DHT22;5851;54.050;9.974;2023-07-09T05:45:24;19.30;66.40
11591;DHT22;5851;54.050;9.974;2023-07-09T05:47:51;19.40;65.80
11591;DHT22;5851;54.050;9.974;2023-07-09T05:50:17;19.50;67.90
11591;DHT22;5851;54.050;9.974;2023-07-09T05:52:44;19.80;66.80
11591;DHT22;5851;54.050;9.974;2023-07-09T05:55:13;19.80;63.90
11591;DHT22;5851;54.050;9.974;2023-07-09T05:57:40;19.90;62.90
11591;DHT22;5851;54.050;9.974;2023-07-09T06:00:07;19.90;63.80
11591;DHT22;5851;54.050;9.974;2023-07-09T06:02:35;20.20;66.50
11591;DHT22;5851;54.050;9.974;2023-07-09T06:05:02;20.30;63.30
11591;DHT22;5851;54.050;9.974;2023-07-09T06:07:29;20.30;62.20
11591;DHT22;5851;54.050;9.974;2023-07-09T06:09:55;20.50;64.30
11591;DHT22;5851;54.050;9.974;2023-07-09T06:12:24;20.60;62.00
11591;DHT22;5851;54.050;9.974;2023-07-09T06:14:51;20.70;59.40
11591;DHT22;5851;54.050;9.974;2023-07-09T06:17:18;20.80;60.00
11591;DHT22;5851;54.050;9.974;2023-07-09T06:19:45;20.90;62.60
11591;DHT22;5851;54.050;9.974;2023-07-09T06:22:12;21.10;60.10
11591;DHT22;5851;54.050;9.974;2023-07-09T06:24:39;21.10;58.60
11591;DHT22;5851;54.050;9.974;2023-07-09T06:27:06;21.20;59.60
11591;DHT22;5851;54.050;9.974;2023-07-09T06:29:34;21.40;59.40
11591;DHT22;5851;54.050;9.974;2023-07-09T06:32:01;21.40;58.30
11591;DHT22;5851;54.050;9.974;2023-07-09T06:34:28;21.40;56.40
11591;DHT22;5851;54.050;9.974;2023-07-09T06:36:56;21.50;56.40
11591;DHT22;5851;54.050;9.974;2023-07-09T06:39:23;21.60;59.50
11591;DHT22;5851;54.050;9.974;2023-07-09T06:41:50;21.90;56.40
11591;DHT22;5851;54.050;9.974;2023-07-09T06:44:17;22.00;55.90
11591;DHT22;5851;54.050;9.974;2023-07-09T06:46:46;22.00;55.80
11591;DHT22;5851;54.050;9.974;2023-07-09T06:49:13;22.10;56.30
11591;DHT22;5851;54.050;9.974;2023-07-09T06:51:40;22.20;57.10
11591;DHT22;5851;54.050;9.974;2023-07-09T06:54:08;22.30;55.20
11591;DHT22;5851;54.050;9.974;2023-07-09T06:56:35;22.30;56.00
11591;DHT22;5851;54.050;9.974;2023-07-09T06:59:02;22.50;54.10
11591;DHT22;5851;54.050;9.974;2023-07-09T07:01:29;22.70;56.00
11591;DHT22;5851;54.050;9.974;2023-07-09T07:03:58;22.80;54.80
11591;DHT22;5851;54.050;9.974;2023-07-09T07:06:26;23.00;53.70
11591;DHT22;5851;54.050;9.974;2023-07-09T07:08:52;22.90;53.20
11591;DHT22;5851;54.050;9.974;2023-07-09T07:11:19;22.90;54.70
11591;DHT22;5851;54.050;9.974;2023-07-09T07:13:48;23.10;55.00
11591;DHT22;5851;54.050;9.974;2023-07-09T07:16:17;23.10;54.50
11591;DHT22;5851;54.050;9.974;2023-07-09T07:18:44;23.20;53.60
11591;DHT22;5851;54.050;9.974;2023-07-09T07:21:12;23.30;55.00
11591;DHT22;5851;54.050;9.974;2023-07-09T07:23:39;23.50;55.60
11591;DHT22;5851;54.050;9.974;2023-07-09T07:26:06;23.70;54.10
11591;DHT22;5851;54.050;9.974;2023-07-09T07:28:34;23.70;52.60
11591;DHT22;5851;54.050;9.974;2023-07-09T07:31:03;23.70;53.00
11591;DHT22;5851;54.050;9.974;2023-07-09T07:33:30;23.80;51.20
11591;DHT22;5851;54.050;9.974;2023-07-09T07:35:57;23.80;51.70
11591;DHT22;5851;54.050;9.974;2023-07-09T07:38:25;23.80;51.00
11591;DHT22;5851;54.050;9.974;2023-07-09T07:40:53;23.90;50.50
11591;DHT22;5851;54.050;9.974;2023-07-09T07:43:20;23.90;50.20
11591;DHT22;5851;54.050;9.974;2023-07-09T07:45:47;24.00;50.30
11591;DHT22;5851;54.050;9.974;2023-07-09T07:48:14;24.00;50.80
11591;DHT22;5851;54.050;9.974;2023-07-09T07:50:41;24.00;52.80
11591;DHT22;5851;54.050;9.974;2023-07-09T07:53:08;24.20;51.30
11591;DHT22;5851;54.050;9.974;2023-07-09T07:55:37;24.20;50.40
11591;DHT22;5851;54.050;9.974;2023-07-09T07:58:04;24.20;50.60
11591;DHT22;5851;54.050;9.974;2023-07-09T08:00:31;24.30;50.80
11591;DHT22;5851;54.050;9.974;2023-07-09T08:02:58;24.40;49.90
11591;DHT22;5851;54.050;9.974;2023-07-09T08:05:25;24.60;51.20
11591;DHT22;5851;54.050;9.974;2023-07-09T08:07:51;24.50;50.90
11591;DHT22;5851;54.050;9.974;2023-07-09T08:10:18;24.70;50.00
11591;DHT22;5851;54.050;9.974;2023-07-09T08:12:47;24.80;50.40
11591;DHT22;5851;54.050;9.974;2023-07-09T08:15:14;24.70;50.90
11591;DHT22;5851;54.050;9.974;2023-07-09T08:17:42;24.80;50.90
11591;DHT22;5851;54.050;9.974;2023-07-09T08:20:09;25.00;51.20
11591;DHT22;5851;54.050;9.974;2023-07-09T08:22:37;24.90;50.70
11591;DHT22;5851;54.050;9.974;2023-07-09T08:25:04;24.90;50.20
11591;DHT22;5851;54.050;9.974;2023-07-09T08:27:31;24.90;51.20
11591;DHT22;5851;54.050;9.974;2023-07-09T08:30:00;25.00;51.70
11591;DHT22;5851;54.050;9.974;2023-07-09T08:32:27;25.00;51.20
11591;DHT22;5851;54.050;9.974;2023-07-09T08:34:54;25.20;49.90
11591;DHT22;5851;54.050;9.974;2023-07-09T08:37:21;25.30;49.70
11591;DHT22;5851;54.050;9.974;2023-07-09T08:39:48;25.00;52.50
11591;DHT22;5851;54.050;9.974;2023-07-09T08:42:17;25.30;50.80
11591;DHT22;5851;54.050;9.974;2023-07-09T08:45:08;25.50;50.40
11591;DHT22;5851;54.050;9.974;2023-07-09T08:47:43;25.60;49.60
11591;DHT22;5851;54.050;9.974;2023-07-09T08:50:16;25.60;49.00
11591;DHT22;5851;54.050;9.974;2023-07-09T08:52:45;25.70;49.30
11591;DHT22;5851;54.050;9.974;2023-07-09T08:55:18;25.90;50.00
11591;DHT22;5851;54.050;9.974;2023-07-09T08:57:48;26.20;48.00
11591;DHT22;5851;54.050;9.974;2023-07-09T09:00:21;26.00;47.60
11591;DHT22;5851;54.050;9.974;2023-07-09T09:02:51;25.60;47.30
11591;DHT22;5851;54.050;9.974;2023-07-09T09:05:20;25.30;48.50
11591;DHT22;5851;54.050;9.974;2023-07-09T09:07:51;25.70;51.00
11591;DHT22;5851;54.050;9.974;2023-07-09T09:10:29;25.90;49.60
11591;DHT22;5851;54.050;9.974;2023-07-09T09:13:06;26.00;50.30
11591;DHT22;5851;54.050;9.974;2023-07-09T09:15:37;26.70;49.00
11591;DHT22;5851;54.050;9.974;2023-07-09T09:18:19;26.60;48.00
11591;DHT22;5851;54.050;9.974;2023-07-09T09:20:48;26.70;48.80
11591;DHT22;5851;54.050;9.974;2023-07-09T09:23:18;26.60;47.70
11591;DHT22;5851;54.050;9.974;2023-07-09T09:25:50;26.50;46.50
11591;DHT22;5851;54.050;9.974;2023-07-09T09:28:18;26.40;48.10
11591;DHT22;5851;54.050;9.974;2023-07-09T09:30:46;26.50;47.40
11591;DHT22;5851;54.050;9.974;2023-07-09T09:33:17;26.70;48.10
11591;DHT22;5851;54.050;9.974;2023-07-09T09:35:45;26.90;47.60
11591;DHT22;5851;54.050;9.974;2023-07-09T09:38:16;26.80;47.40
11591;DHT22;5851;54.050;9.974;2023-07-09T09:40:43;27.00;49.50
11591;DHT22;5851;54.050;9.974;2023-07-09T09:43:13;27.00;45.90
11591;DHT22;5851;54.050;9.974;2023-07-09T09:45:42;27.10;45.80
11591;DHT22;5851;54.050;9.974;2023-07-09T09:48:15;27.00;46.00
11591;DHT22;5851;54.050;9.974;2023-07-09T09:50:42;27.10;46.00
11591;DHT22;5851;54.050;9.974;2023-07-09T09:53:18;27.10;45.90
11591;DHT22;5851;54.050;9.974;2023-07-09T09:55:45;27.20;45.70
11591;DHT22;5851;54.050;9.974;2023-07-09T09:58:15;27.40;46.40
11591;DHT22;5851;54.050;9.974;2023-07-09T10:00:48;27.30;48.10
11591;DHT22;5851;54.050;9.974;2023-07-09T10:03:18;27.60;47.00
11591;DHT22;5851;54.050;9.974;2023-07-09T10:05:49;27.80;45.50
11591;DHT22;5851;54.050;9.974;2023-07-09T10:08:24;27.70;46.00
11591;DHT22;5851;54.050;9.974;2023-07-09T10:10:59;27.60;46.00
11591;DHT22;5851;54.050;9.974;2023-07-09T10:13:35;27.60;48.00
11591;DHT22;5851;54.050;9.974;2023-07-09T10:16:07;27.60;47.50
11591;DHT22;5851;54.050;9.974;2023-07-09T10:18:47;27.80;46.10
11591;DHT22;5851;54.050;9.974;2023-07-09T10:21:24;27.60;47.50
11591;DHT22;5851;54.050;9.974;2023-07-09T10:24:03;27.70;46.30
11591;DHT22;5851;54.050;9.974;2023-07-09T10:26:40;27.50;47.50
11591;DHT22;5851;54.050;9.974;2023-07-09T10:29:41;27.60;46.40
11591;DHT22;5851;54.050;9.974;2023-07-09T10:32:19;27.80;47.00
11591;DHT22;5851;54.050;9.974;2023-07-09T10:34:56;28.00;46.40
11591;DHT22;5851;54.050;9.974;2023-07-09T10:37:40;27.90;47.50
11591;DHT22;5851;54.050;9.974;2023-07-09T10:40:14;28.00;46.50
11591;DHT22;5851;54.050;9.974;2023-07-09T10:42:45;28.20;47.00
11591;DHT22;5851;54.050;9.974;2023-07-09T10:45:16;28.20;46.40
11591;DHT22;5851;54.050;9.974;2023-07-09T10:47:49;28.10;47.70
11591;DHT22;5851;54.050;9.974;2023-07-09T10:50:27;28.30;45.90
11591;DHT22;5851;54.050;9.974;2023-07-09T10:52:57;28.20;46.50
11591;DHT22;5851;54.050;9.974;2023-07-09T10:55:30;28.30;45.70
11591;DHT22;5851;54.050;9.974;2023-07-09T10:58:00;28.30;44.10
11591;DHT22;5851;54.050;9.974;2023-07-09T11:00:34;28.20;46.00
11591;DHT22;5851;54.050;9.974;2023-07-09T11:03:05;28.30;45.40
11591;DHT22;5851;54.050;9.974;2023-07-09T11:05:37;28.20;45.60
11591;DHT22;5851;54.050;9.974;2023-07-09T11:08:08;28.10;44.80
11591;DHT22;5851;54.050;9.974;2023-07-09T11:10:40;28.10;45.50
11591;DHT22;5851;54.050;9.974;2023-07-09T11:13:11;28.50;45.90
11591;DHT22;5851;54.050;9.974;2023-07-09T11:15:43;28.50;44.40
11591;DHT22;5851;54.050;9.974;2023-07-09T11:18:23;28.50;45.30
11591;DHT22;5851;54.050;9.974;2023-07-09T11:21:00;28.50;44.70
11591;DHT22;5851;54.050;9.974;2023-07-09T11:23:37;28.50;45.80
11591;DHT22;5851;54.050;9.974;2023-07-09T11:26:11;28.50;45.00
11591;DHT22;5851;54.050;9.974;2023-07-09T11:28:51;28.50;45.70
11591;DHT22;5851;54.050;9.974;2023-07-09T11:31:22;28.70;43.50
11591;DHT22;5851;54.050;9.974;2023-07-09T11:34:00;28.60;45.00
11591;DHT22;5851;54.050;9.974;2023-07-09T11:36:29;28.50;44.20
11591;DHT22;5851;54.050;9.974;2023-07-09T11:38:57;28.70;44.70
11591;DHT22;5851;54.050;9.974;2023-07-09T11:41:35;28.90;45.00
11591;DHT22;5851;54.050;9.974;2023-07-09T11:44:12;28.90;44.40
11591;DHT22;5851;54.050;9.974;2023-07-09T11:46:52;28.70;45.30
11591;DHT22;5851;54.050;9.974;2023-07-09T11:49:23;28.80;45.10
11591;DHT22;5851;54.050;9.974;2023-07-09T11:51:57;28.70;45.10
11591;DHT22;5851;54.050;9.974;2023-07-09T11:54:25;28.60;44.80
11591;DHT22;5851;54.050;9.974;2023-07-09T11:56:56;29.00;43.00
11591;DHT22;5851;54.050;9.974;2023-07-09T11:59:23;28.90;43.20
11591;DHT22;5851;54.050;9.974;2023-07-09T12:01:51;28.90;43.60
11591;DHT22;5851;54.050;9.974;2023-07-09T12:04:25;28.90;42.60
11591;DHT22;5851;54.050;9.974;2023-07-09T12:06:59;28.70;43.10
11591;DHT22;5851;54.050;9.974;2023-07-09T12:09:31;28.90;43.20
11591;DHT22;5851;54.050;9.974;2023-07-09T12:11:58;28.90;42.60
11591;DHT22;5851;54.050;9.974;2023-07-09T12:14:25;29.00;41.90
11591;DHT22;5851;54.050;9.974;2023-07-09T12:16:53;29.00;41.10
11591;DHT22;5851;54.050;9.974;2023-07-09T12:19:21;29.00;41.70
11591;DHT22;5851;54.050;9.974;2023-07-09T12:21:52;28.90;42.50
11591;DHT22;5851;54.050;9.974;2023-07-09T12:24:23;28.80;42.20
11591;DHT22;5851;54.050;9.974;2023-07-09T12:26:52;29.00;42.70
11591;DHT22;5851;54.050;9.974;2023-07-09T12:29:19;29.00;42.40
11591;DHT22;5851;54.050;9.974;2023-07-09T12:31:46;29.10;42.90
11591;DHT22;5851;54.050;9.974;2023-07-09T12:34:13;29.20;42.20
11591;DHT22;5851;54.050;9.974;2023-07-09T12:36:44;29.30;40.80
11591;DHT22;5851;54.050;9.974;2023-07-09T12:39:12;29.50;41.00
11591;DHT22;5851;54.050;9.974;2023-07-09T12:41:44;29.30;42.30
11591;DHT22;5851;54.050;9.974;2023-07-09T12:44:16;29.40;41.80
11591;DHT22;5851;54.050;9.974;2023-07-09T12:46:44;29.20;41.40
11591;DHT22;5851;54.050;9.974;2023-07-09T12:49:21;29.40;41.60
11591;DHT22;5851;54.050;9.974;2023-07-09T12:51:49;29.40;41.90
11591;DHT22;5851;54.050;9.974;2023-07-09T12:54:18;29.60;40.70
11591;DHT22;5851;54.050;9.974;2023-07-09T12:56:49;29.30;40.90
11591;DHT22;5851;54.050;9.974;2023-07-09T12:59:18;29.20;41.10
11591;DHT22;5851;54.050;9.974;2023-07-09T13:01:50;29.20;41.90
11591;DHT22;5851;54.050;9.974;2023-07-09T13:04:17;29.40;40.80
11591;DHT22;5851;54.050;9.974;2023-07-09T13:06:45;29.60;39.70
11591;DHT22;5851;54.050;9.974;2023-07-09T13:09:18;29.50;40.00
11591;DHT22;5851;54.050;9.974;2023-07-09T13:11:48;29.50;39.50
11591;DHT22;5851;54.050;9.974;2023-07-09T13:14:20;29.50;39.80
11591;DHT22;5851;54.050;9.974;2023-07-09T13:16:47;29.50;41.20
11591;DHT22;5851;54.050;9.974;2023-07-09T13:19:15;29.50;40.10
11591;DHT22;5851;54.050;9.974;2023-07-09T13:21:42;29.40;40.90
11591;DHT22;5851;54.050;9.974;2023-07-09T13:24:14;29.40;40.70
11591;DHT22;5851;54.050;9.974;2023-07-09T13:26:43;29.30;40.70
11591;DHT22;5851;54.050;9.974;2023-07-09T13:29:14;29.40;40.60
11591;DHT22;5851;54.050;9.974;2023-07-09T13:31:41;29.40;40.80
11591;DHT22;5851;54.050;9.974;2023-07-09T13:34:18;29.20;41.80
11591;DHT22;5851;54.050;9.974;2023-07-09T13:36:45;29.10;41.80
11591;DHT22;5851;54.050;9.974;2023-07-09T13:39:12;29.30;41.00
11591;DHT22;5851;54.050;9.974;2023-07-09T13:41:39;29.10;40.60
11591;DHT22;5851;54.050;9.974;2023-07-09T13:44:13;29.00;41.80
11591;DHT22;5851;54.050;9.974;2023-07-09T13:46:41;29.20;42.20
11591;DHT22;5851;54.050;9.974;2023-07-09T13:49:12;29.00;42.80
11591;DHT22;5851;54.050;9.974;2023-07-09T13:51:40;28.90;44.40
11591;DHT22;5851;54.050;9.974;2023-07-09T13:54:19;28.90;44.30
11591;DHT22;5851;54.050;9.974;2023-07-09T13:56:47;28.80;45.40
11591;DHT22;5851;54.050;9.974;2023-07-09T13:59:18;29.00;45.10
11591;DHT22;5851;54.050;9.974;2023-07-09T14:01:46;29.00;45.50
11591;DHT22;5851;54.050;9.974;2023-07-09T14:04:15;29.10;44.60
11591;DHT22;5851;54.050;9.974;2023-07-09T14:06:43;29.20;44.30
11591;DHT22;5851;54.050;9.974;2023-07-09T14:09:12;29.10;44.90
11591;DHT22;5851;54.050;9.974;2023-07-09T14:11:44;29.10;45.20
11591;DHT22;5851;54.050;9.974;2023-07-09T14:14:19;29.10;45.20
11591;DHT22;5851;54.050;9.974;2023-07-09T14:16:47;29.40;44.40
11591;DHT22;5851;54.050;9.974;2023-07-09T14:19:16;29.40;44.90
11591;DHT22;5851;54.050;9.974;2023-07-09T14:21:43;29.30;44.70
11591;DHT22;5851;54.050;9.974;2023-07-09T14:24:19;29.30;45.10
11591;DHT22;5851;54.050;9.974;2023-07-09T14:26:47;29.50;44.20
11591;DHT22;5851;54.050;9.974;2023-07-09T14:29:14;29.50;44.40
11591;DHT22;5851;54.050;9.974;2023-07-09T14:31:42;29.30;44.00
11591;DHT22;5851;54.050;9.974;2023-07-09T14:34:21;29.30;44.40
11591;DHT22;5851;54.050;9.974;2023-07-09T14:36:49;29.40;44.40
11591;DHT22;5851;54.050;9.974;2023-07-09T14:39:16;29.30;43.90
11591;DHT22;5851;54.050;9.974;2023-07-09T14:41:43;29.40;44.20
11591;DHT22;5851;54.050;9.974;2023-07-09T14:44:21;29.30;44.90
11591;DHT22;5851;54.050;9.974;2023-07-09T14:46:50;29.50;46.10
11591;DHT22;5851;54.050;9.974;2023-07-09T14:49:17;29.50;43.20
11591;DHT22;5851;54.050;9.974;2023-07-09T14:51:44;29.40;44.60
11591;DHT22;5851;54.050;9.974;2023-07-09T14:54:18;29.30;44.20
11591;DHT22;5851;54.050;9.974;2023-07-09T14:56:46;29.20;43.60
11591;DHT22;5851;54.050;9.974;2023-07-09T14:59:13;29.10;45.00
11591;DHT22;5851;54.050;9.974;2023-07-09T15:01:41;29.10;43.80
11591;DHT22;5851;54.050;9.974;2023-07-09T15:04:26;29.10;45.10
11591;DHT22;5851;54.050;9.974;2023-07-09T15:06:55;29.20;43.70
11591;DHT22;5851;54.050;9.974;2023-07-09T15:09:23;29.20;45.00
11591;DHT22;5851;54.050;9.974;2023-07-09T15:11:51;29.20;43.30
11591;DHT22;5851;54.050;9.974;2023-07-09T15:14:19;29.30;43.90
11591;DHT22;5851;54.050;9.974;2023-07-09T15:16:46;29.40;44.50
11591;DHT22;5851;54.050;9.974;2023-07-09T15:19:17;29.50;44.60
11591;DHT22;5851;54.050;9.974;2023-07-09T15:21:45;29.50;44.30
11591;DHT22;5851;54.050;9.974;2023-07-09T15:24:20;29.30;44.80
11591;DHT22;5851;54.050;9.974;2023-07-09T15:26:50;29.20;44.50
11591;DHT22;5851;54.050;9.974;2023-07-09T15:29:19;29.10;44.80
11591;DHT22;5851;54.050;9.974;2023-07-09T15:31:46;29.00;45.20
11591;DHT22;5851;54.050;9.974;2023-07-09T15:34:14;29.10;44.50
11591;DHT22;5851;54.050;9.974;2023-07-09T15:36:43;29.00;43.90
11591;DHT22;5851;54.050;9.974;2023-07-09T15:39:11;28.90;45.00
11591;DHT22;5851;54.050;9.974;2023-07-09T15:41:38;28.80;44.20
11591;DHT22;5851;54.050;9.974;2023-07-09T15:44:09;28.80;45.20
11591;DHT22;5851;54.050;9.974;2023-07-09T15:46:37;28.80;43.50
11591;DHT22;5851;54.050;9.974;2023-07-09T15:49:05;28.80;43.80
11591;DHT22;5851;54.050;9.974;2023-07-09T15:51:33;28.80;44.70
11591;DHT22;5851;54.050;9.974;2023-07-09T15:54:00;28.70;44.30
11591;DHT22;5851;54.050;9.974;2023-07-09T15:56:29;28.70;44.60
11591;DHT22;5851;54.050;9.974;2023-07-09T15:58:59;28.80;44.80
11591;DHT22;5851;54.050;9.974;2023-07-09T16:01:27;28.90;44.40